createdAt,value
2022-11-24T00:01:28.796Z,47.40
2022-11-24T00:04:00.883Z,51.80
2022-11-24T00:06:29.059Z,58.03
2022-11-24T00:08:56.732Z,51.75
2022-11-24T00:11:30.682Z,51.05
2022-11-24T00:13:58.395Z,55.08
2022-11-24T00:16:27.734Z,54.90
2022-11-24T00:18:57.026Z,54.13
2022-11-24T00:21:25.167Z,50.92
2022-11-24T00:23:52.843Z,57.38
2022-11-24T00:26:21.941Z,58.05
2022-11-24T00:28:50.519Z,58.00
2022-11-24T00:31:27.090Z,63.25
2022-11-24T00:33:59.635Z,61.60
2022-11-24T00:36:30.459Z,54.75
2022-11-24T00:38:58.881Z,61.60
2022-11-24T00:41:27.401Z,60.75
2022-11-24T00:43:54.836Z,62.22
2022-11-24T00:46:25.059Z,65.70
2022-11-24T00:48:52.689Z,63.83
2022-11-24T00:51:20.893Z,56.15
2022-11-24T00:53:47.837Z,61.13
2022-11-24T00:56:14.862Z,59.45
2022-11-24T00:58:42.076Z,55.22
2022-11-24T01:01:12.243Z,67.28
2022-11-24T01:03:39.895Z,71.72
2022-11-24T01:06:27.631Z,60.35
2022-11-24T01:08:57.128Z,65.90
2022-11-24T01:11:28.091Z,60.58
2022-11-24T01:13:59.226Z,65.03
2022-11-24T01:16:30.227Z,67.00
2022-11-24T01:18:57.514Z,60.97
2022-11-24T01:21:24.982Z,60.10
2022-11-24T01:23:51.814Z,58.75
2022-11-24T01:26:20.780Z,62.47
2022-11-24T01:28:56.798Z,66.70
2022-11-24T01:31:25.256Z,63.83
2022-11-24T01:33:52.759Z,61.58
2022-11-24T01:36:20.109Z,69.07
2022-11-24T01:38:47.412Z,59.42
2022-11-24T01:41:16.879Z,66.63
2022-11-24T01:43:45.346Z,66.47
2022-11-24T01:46:16.132Z,57.30
2022-11-24T01:48:47.769Z,57.88
2022-11-24T01:51:21.132Z,65.10
2022-11-24T01:53:53.365Z,63.28
2022-11-24T01:56:21.446Z,68.82
2022-11-24T01:58:51.178Z,61.17
2022-11-24T02:01:18.739Z,64.93
2022-11-24T02:03:47.015Z,75.22
2022-11-24T02:06:19.571Z,55.67
2022-11-24T02:08:58.283Z,70.93
2022-11-24T02:11:28.936Z,59.10
2022-11-24T02:13:56.973Z,57.63
2022-11-24T02:16:24.600Z,63.92
2022-11-24T02:18:51.849Z,62.97
2022-11-24T02:21:19.763Z,60.55
2022-11-24T02:24:06.306Z,61.03
2022-11-24T02:26:37.850Z,65.15
2022-11-24T02:29:04.931Z,66.43
2022-11-24T02:31:32.111Z,66.93
2022-11-24T02:33:59.198Z,60.90
2022-11-24T02:36:26.363Z,55.33
2022-11-24T02:38:53.290Z,64.55
2022-11-24T02:41:22.605Z,55.55
2022-11-24T02:43:55.692Z,66.10
2022-11-24T02:46:24.092Z,62.28
2022-11-24T02:48:51.308Z,58.85
2022-11-24T02:51:19.428Z,63.28
2022-11-24T02:53:48.755Z,58.45
2022-11-24T02:56:17.533Z,50.53
2022-11-24T02:58:44.657Z,52.85
2022-11-24T03:01:11.553Z,50.80
2022-11-24T03:03:38.617Z,54.05
2022-11-24T03:06:06.270Z,48.83
2022-11-24T03:08:33.417Z,53.70
2022-11-24T03:11:02.289Z,52.67
2022-11-24T03:13:29.352Z,68.72
2022-11-24T03:15:56.359Z,49.55
2022-11-24T03:18:23.290Z,49.53
2022-11-24T03:20:53.008Z,57.40
2022-11-24T03:23:20.057Z,52.40
2022-11-24T03:25:46.883Z,48.80
2022-11-24T03:28:13.817Z,52.92
2022-11-24T03:33:08.507Z,64.90
2022-11-24T03:35:35.504Z,54.15
2022-11-24T03:38:02.164Z,52.40
2022-11-24T03:40:28.857Z,57.10
2022-11-24T03:42:55.585Z,56.28
2022-11-24T03:48:10.056Z,48.05
2022-11-24T03:50:37.010Z,49.33
2022-11-24T03:53:03.866Z,43.03
2022-11-24T03:55:30.607Z,44.92
2022-11-24T03:57:57.358Z,51.80
2022-11-24T04:00:23.966Z,48.58
2022-11-24T04:02:50.770Z,44.97
2022-11-24T04:05:17.755Z,51.97
2022-11-24T04:07:44.499Z,47.22
2022-11-24T04:10:11.623Z,48.58
2022-11-24T04:12:44.264Z,49.67
2022-11-24T04:15:20.583Z,50.10
2022-11-24T04:17:49.647Z,51.10
2022-11-24T04:20:17.059Z,53.95
2022-11-24T04:22:43.911Z,53.13
2022-11-24T04:25:11.080Z,54.55
2022-11-24T04:27:38.585Z,50.78
2022-11-24T04:30:07.296Z,58.78
2022-11-24T04:32:33.929Z,58.40
2022-11-24T04:35:00.749Z,58.60
2022-11-24T04:37:27.474Z,66.93
2022-11-24T04:39:55.386Z,58.10
2022-11-24T04:42:22.910Z,54.25
2022-11-24T04:44:49.818Z,55.30
2022-11-24T04:47:20.503Z,49.97
2022-11-24T04:49:51.542Z,54.20
2022-11-24T04:52:19.784Z,48.42
2022-11-24T04:54:47.069Z,50.55
2022-11-24T04:57:24.972Z,52.80
2022-11-24T04:59:52.801Z,47.08
2022-11-24T05:02:20.219Z,45.30
2022-11-24T05:04:47.513Z,48.80
2022-11-24T05:07:18.643Z,55.55
2022-11-24T05:10:05.077Z,49.40
2022-11-24T05:12:34.386Z,51.92
2022-11-24T05:15:02.591Z,47.90
2022-11-24T05:17:30.937Z,49.75
2022-11-24T05:19:58.149Z,46.90
2022-11-24T05:22:25.058Z,48.38
2022-11-24T05:24:51.696Z,55.15
2022-11-24T05:27:18.273Z,47.05
2022-11-24T05:29:44.996Z,56.97
2022-11-24T05:32:11.677Z,48.05
2022-11-24T05:34:38.864Z,51.28
2022-11-24T05:37:05.561Z,54.08
2022-11-24T05:39:33.552Z,50.55
2022-11-24T05:42:21.794Z,40.83
2022-11-24T05:44:48.528Z,40.95
2022-11-24T05:47:15.376Z,35.80
2022-11-24T05:49:44.059Z,44.30
2022-11-24T05:52:11.511Z,40.80
2022-11-24T05:54:38.152Z,40.90
2022-11-24T05:57:04.771Z,42.22
2022-11-24T05:59:31.427Z,43.75
2022-11-24T06:01:58.152Z,48.22
2022-11-24T06:04:24.856Z,43.67
2022-11-24T06:06:51.690Z,44.00
2022-11-24T06:09:18.386Z,38.60
2022-11-24T06:11:45.040Z,43.50
2022-11-24T06:14:11.810Z,39.35
2022-11-24T06:16:38.874Z,38.72
2022-11-24T06:19:05.532Z,42.10
2022-11-24T06:21:32.684Z,38.63
2022-11-24T06:23:59.379Z,38.80
2022-11-24T06:26:29.013Z,45.10
2022-11-24T06:28:55.834Z,36.38
2022-11-24T06:31:22.464Z,38.10
2022-11-24T06:33:49.150Z,45.13
2022-11-24T06:36:16.039Z,39.45
2022-11-24T06:38:44.547Z,40.95
2022-11-24T06:41:16.198Z,39.72
2022-11-24T06:43:43.378Z,45.55
2022-11-24T06:46:11.465Z,45.72
2022-11-24T06:48:38.773Z,42.22
2022-11-24T06:51:09.401Z,41.58
2022-11-24T06:53:38.482Z,37.47
2022-11-24T06:56:16.171Z,40.25
2022-11-24T06:58:50.999Z,39.92
2022-11-24T07:01:19.756Z,35.47
2022-11-24T07:03:48.267Z,36.92
2022-11-24T07:06:16.339Z,40.38
2022-11-24T07:08:43.284Z,36.00
2022-11-24T07:11:12.869Z,40.70
2022-11-24T07:13:42.051Z,38.28
2022-11-24T07:16:17.300Z,40.58
2022-11-24T07:18:45.386Z,33.83
2022-11-24T07:21:12.192Z,37.53
2022-11-24T07:23:39.168Z,36.80
2022-11-24T07:26:07.347Z,36.30
2022-11-24T07:28:35.233Z,39.83
2022-11-24T07:31:07.303Z,35.45
2022-11-24T07:33:34.434Z,35.70
2022-11-24T07:36:01.789Z,33.28
2022-11-24T07:38:29.923Z,34.40
2022-11-24T07:41:08.219Z,35.88
2022-11-24T07:43:36.666Z,38.58
2022-11-24T07:46:05.525Z,38.22
2022-11-24T07:48:32.816Z,34.90
2022-11-24T07:51:02.459Z,35.42
2022-11-24T07:53:30.711Z,30.17
2022-11-24T07:56:04.490Z,30.88
2022-11-24T07:58:33.915Z,30.55
2022-11-24T08:01:02.932Z,29.67
2022-11-24T08:03:32.802Z,29.85
2022-11-24T08:08:51.079Z,27.83
2022-11-24T08:11:20.044Z,31.30
2022-11-24T08:13:53.352Z,37.28
2022-11-24T08:16:23.523Z,35.78
2022-11-24T08:27:10.102Z,29.65
2022-11-24T08:32:27.782Z,34.83
2022-11-24T08:37:45.978Z,33.63
2022-11-24T08:40:15.186Z,32.60
2022-11-24T08:42:42.949Z,37.33
2022-11-24T08:45:20.347Z,37.58
2022-11-24T08:47:52.741Z,34.88
2022-11-24T08:50:19.642Z,31.77
2022-11-24T08:52:46.233Z,33.30
2022-11-24T08:55:13.233Z,36.28
2022-11-24T08:57:40.121Z,37.08
2022-11-24T09:00:09.370Z,31.92
2022-11-24T09:02:37.058Z,29.05
2022-11-24T09:05:43.680Z,39.30
2022-11-24T09:08:02.926Z,31.33
2022-11-24T09:10:30.975Z,34.83
2022-11-24T09:15:42.665Z,29.65
2022-11-24T09:18:10.523Z,33.28
2022-11-24T09:20:37.227Z,30.35
2022-11-24T09:23:03.940Z,27.52
2022-11-24T09:25:30.541Z,30.05
2022-11-24T09:27:57.597Z,28.10
2022-11-24T09:30:24.251Z,28.67
2022-11-24T09:32:50.899Z,30.75
2022-11-24T09:35:17.714Z,32.63
2022-11-24T09:37:45.942Z,32.33
2022-11-24T09:40:14.793Z,29.42
2022-11-24T09:42:53.915Z,33.58
2022-11-24T09:45:49.287Z,31.30
2022-11-24T09:48:35.146Z,34.67
2022-11-24T09:51:02.907Z,32.33
2022-11-24T09:53:31.916Z,31.02
2022-11-24T09:56:09.305Z,29.33
2022-11-24T09:58:46.172Z,32.80
2022-11-24T10:01:17.432Z,29.95
2022-11-24T10:03:51.776Z,30.40
2022-11-24T10:06:34.855Z,27.45
2022-11-24T10:09:24.376Z,31.83
2022-11-24T10:12:12.827Z,28.08
2022-11-24T10:14:51.678Z,30.38
2022-11-24T10:17:30.528Z,29.77
2022-11-24T10:20:09.302Z,29.95
2022-11-24T10:23:02.554Z,34.38
2022-11-24T10:25:48.247Z,28.25
2022-11-24T10:28:16.080Z,29.23
2022-11-24T10:30:43.172Z,32.63
2022-11-24T10:33:24.309Z,26.67
2022-11-24T10:36:02.498Z,32.85
2022-11-24T10:38:40.873Z,26.90
2022-11-24T10:41:11.782Z,28.92
2022-11-24T10:43:41.392Z,32.10
2022-11-24T10:46:12.980Z,31.88
2022-11-24T10:48:49.369Z,29.60
2022-11-24T10:51:27.715Z,32.53
2022-11-24T10:54:00.598Z,37.92
2022-11-24T10:56:27.439Z,30.85
2022-11-24T10:58:54.048Z,33.40
2022-11-24T11:01:29.254Z,32.75
2022-11-24T11:03:58.590Z,37.13
2022-11-24T11:06:29.968Z,31.33
2022-11-24T11:09:08.739Z,36.28
2022-11-24T11:11:37.370Z,32.72
2022-11-24T11:14:08.412Z,33.58
2022-11-24T11:16:41.472Z,31.88
2022-11-24T11:22:25.829Z,28.13
2022-11-24T11:25:07.787Z,34.25
2022-11-24T11:27:34.923Z,29.30
2022-11-24T11:35:52.098Z,31.33
2022-11-24T11:38:19.428Z,31.63
2022-11-24T11:40:47.784Z,33.15
2022-11-24T11:43:25.543Z,32.70
2022-11-24T11:46:13.378Z,27.25
2022-11-24T11:48:44.167Z,32.35
2022-11-24T11:51:26.590Z,29.15
2022-11-24T11:54:22.632Z,29.00
2022-11-24T11:56:50.678Z,27.83
2022-11-24T11:59:35.645Z,28.95
2022-11-24T12:02:08.449Z,29.83
2022-11-24T12:04:46.992Z,29.55
2022-11-24T12:07:28.898Z,30.40
2022-11-24T12:10:04.170Z,25.65
2022-11-24T12:12:36.996Z,33.60
2022-11-24T12:15:16.315Z,29.73
2022-11-24T12:18:01.496Z,28.33
2022-11-24T12:20:40.186Z,32.25
2022-11-24T12:23:34.784Z,26.95
2022-11-24T12:26:24.666Z,38.53
2022-11-24T12:29:14.142Z,28.98
2022-11-24T12:31:57.520Z,28.50
2022-11-24T12:34:32.294Z,29.30
2022-11-24T12:37:15.153Z,26.13
2022-11-24T12:39:47.492Z,26.27
2022-11-24T12:42:40.582Z,30.27
2022-11-24T12:45:09.906Z,31.83
2022-11-24T12:47:46.840Z,34.00
2022-11-24T12:50:17.813Z,28.40
2022-11-24T12:52:57.181Z,27.15
2022-11-24T12:55:25.803Z,25.35
2022-11-24T12:57:55.341Z,27.40
2022-11-24T13:00:24.365Z,28.67
2022-11-24T13:03:03.134Z,30.52
2022-11-24T13:05:41.543Z,31.52
2022-11-24T13:08:08.472Z,33.60
2022-11-24T13:10:57.128Z,29.90
2022-11-24T13:13:28.578Z,31.55
2022-11-24T13:16:34.550Z,27.23
2022-11-24T13:18:53.310Z,28.73
2022-11-24T13:21:32.739Z,26.77
2022-11-24T13:24:06.845Z,27.17
2022-11-24T13:26:42.282Z,33.40
2022-11-24T13:29:27.862Z,27.75
2022-11-24T13:31:55.372Z,30.27
2022-11-24T13:34:47.159Z,29.88
2022-11-24T13:37:31.949Z,29.52
2022-11-24T13:40:08.013Z,29.35
2022-11-24T13:42:54.892Z,29.45
2022-11-24T13:45:40.165Z,28.67
2022-11-24T13:48:19.848Z,27.50
2022-11-24T13:50:49.907Z,25.70
2022-11-24T13:53:53.603Z,29.92
2022-11-24T13:56:25.873Z,24.00
2022-11-24T13:58:55.509Z,27.88
2022-11-24T14:01:24.109Z,27.80
2022-11-24T14:04:28.693Z,26.48
2022-11-24T14:07:09.101Z,25.58
2022-11-24T14:09:51.324Z,31.83
2022-11-24T14:12:20.432Z,30.63
2022-11-24T14:14:51.772Z,29.85
2022-11-24T14:17:27.852Z,29.30
2022-11-24T14:19:56.664Z,26.02
2022-11-24T14:22:27.004Z,35.60
2022-11-24T14:24:59.150Z,26.27
2022-11-24T14:27:36.551Z,31.67
2022-11-24T14:30:23.370Z,28.52
2022-11-24T14:32:57.582Z,26.52
2022-11-24T14:35:25.442Z,29.80
2022-11-24T14:37:52.198Z,26.05
2022-11-24T14:40:37.747Z,23.70
2022-11-24T14:43:17.091Z,28.90
2022-11-24T14:46:10.308Z,26.67
2022-11-24T14:48:38.968Z,25.23
2022-11-24T14:53:45.621Z,29.15
2022-11-24T14:56:29.815Z,27.95
2022-11-24T14:58:57.731Z,27.23
2022-11-24T15:01:27.482Z,29.13
2022-11-24T15:04:32.473Z,28.70
2022-11-24T15:07:16.698Z,28.58
2022-11-24T15:09:52.741Z,25.25
2022-11-24T15:12:36.433Z,25.08
2022-11-24T15:17:58.897Z,26.13
2022-11-24T15:23:25.860Z,24.90
2022-11-24T15:26:13.049Z,27.90
2022-11-24T15:28:40.399Z,22.42
2022-11-24T15:31:11.095Z,30.92
2022-11-24T15:33:38.250Z,29.42
2022-11-24T15:36:07.000Z,30.58
2022-11-24T15:38:33.984Z,30.02
2022-11-24T15:41:01.506Z,33.42
2022-11-24T15:43:38.617Z,32.97
2022-11-24T15:46:06.670Z,28.98
2022-11-24T15:48:33.334Z,28.90
2022-11-24T15:51:02.495Z,30.27
2022-11-24T15:53:38.477Z,32.85
2022-11-24T15:56:07.969Z,32.28
2022-11-24T15:58:35.014Z,32.95
2022-11-24T16:01:01.847Z,36.15
2022-11-24T16:06:23.664Z,31.60
2022-11-24T16:08:51.888Z,35.20
2022-11-24T16:11:18.524Z,33.22
2022-11-24T16:13:51.532Z,39.17
2022-11-24T16:16:20.026Z,30.08
2022-11-24T16:18:46.716Z,30.10
2022-11-24T16:21:13.390Z,26.92
2022-11-24T16:23:40.425Z,30.38
2022-11-24T16:26:07.289Z,31.00
2022-11-24T16:28:34.129Z,33.38
2022-11-24T16:31:01.158Z,30.50
2022-11-24T16:33:29.966Z,30.35
2022-11-24T16:38:28.157Z,29.75
2022-11-24T16:40:58.270Z,28.10
2022-11-24T16:43:25.956Z,27.48
2022-11-24T16:48:55.868Z,28.45
2022-11-24T16:51:23.188Z,29.40
2022-11-24T16:53:58.022Z,33.45
2022-11-24T16:56:24.878Z,28.10
2022-11-24T16:58:54.001Z,26.10
2022-11-24T17:01:21.056Z,31.50
2022-11-24T17:03:47.781Z,30.30
2022-11-24T17:06:16.398Z,32.53
2022-11-24T17:08:44.464Z,30.30
2022-11-24T17:11:16.554Z,26.90
2022-11-24T17:13:44.260Z,28.42
2022-11-24T17:16:16.552Z,25.58
2022-11-24T17:18:43.741Z,27.40
2022-11-24T17:21:13.473Z,27.60
2022-11-24T17:23:40.530Z,30.13
2022-11-24T17:26:10.307Z,26.98
2022-11-24T17:28:37.429Z,28.23
2022-11-24T17:31:08.825Z,29.55
2022-11-24T17:33:35.669Z,24.27
2022-11-24T17:36:04.848Z,33.67
2022-11-24T17:38:31.553Z,30.48
2022-11-24T17:40:58.909Z,35.65
2022-11-24T17:43:27.594Z,29.20
2022-11-24T17:48:30.526Z,34.00
2022-11-24T17:51:00.586Z,31.58
2022-11-24T17:53:28.666Z,25.20
2022-11-24T17:55:58.782Z,31.52
2022-11-24T17:58:27.974Z,29.00
2022-11-24T18:00:55.127Z,30.45
2022-11-24T18:03:21.978Z,29.85
2022-11-24T18:05:50.455Z,30.38
2022-11-24T18:08:19.861Z,31.58
2022-11-24T18:10:46.722Z,30.67
2022-11-24T18:13:40.767Z,30.25
2022-11-24T18:16:04.466Z,29.90
2022-11-24T18:18:31.160Z,32.97
2022-11-24T18:20:59.380Z,28.92
2022-11-24T18:23:27.723Z,31.95
2022-11-24T18:25:55.735Z,31.55
2022-11-24T18:28:22.852Z,33.92
2022-11-24T18:30:52.651Z,34.22
2022-11-24T18:33:23.316Z,29.27
2022-11-24T18:36:01.925Z,30.42
2022-11-24T18:38:29.864Z,29.42
2022-11-24T18:40:59.628Z,30.85
2022-11-24T18:43:28.900Z,28.40
2022-11-24T18:45:56.314Z,31.33
2022-11-24T18:48:25.867Z,28.42
2022-11-24T18:50:54.235Z,29.65
2022-11-24T18:53:22.199Z,28.33
2022-11-24T18:56:06.654Z,31.67
2022-11-24T18:58:34.705Z,30.33
2022-11-24T19:01:08.634Z,30.63
2022-11-24T19:03:48.653Z,32.55
2022-11-24T19:06:31.959Z,32.40
2022-11-24T19:09:06.865Z,35.83
2022-11-24T19:11:37.162Z,29.40
2022-11-24T19:14:06.169Z,31.13
2022-11-24T19:16:32.952Z,37.67
2022-11-24T19:19:00.580Z,30.58
2022-11-24T19:21:28.107Z,32.58
2022-11-24T19:23:58.558Z,32.42
2022-11-24T19:26:33.677Z,36.00
2022-11-24T19:29:01.035Z,36.83
2022-11-24T19:31:28.412Z,34.75
2022-11-24T19:33:56.049Z,38.65
2022-11-24T19:36:23.200Z,36.05
2022-11-24T19:38:52.091Z,32.20
2022-11-24T19:41:20.364Z,36.53
2022-11-24T19:43:48.049Z,40.17
2022-11-24T19:46:16.662Z,37.88
2022-11-24T19:48:50.296Z,36.92
2022-11-24T19:51:25.622Z,34.50
2022-11-24T19:53:53.249Z,35.75
2022-11-24T19:56:25.174Z,38.22
2022-11-24T19:58:53.349Z,35.40
2022-11-24T20:01:31.448Z,35.25
2022-11-24T20:03:59.329Z,34.58
2022-11-24T20:11:44.439Z,34.42
2022-11-24T20:14:16.704Z,32.10
2022-11-24T20:16:46.795Z,33.67
2022-11-24T20:19:17.285Z,36.05
2022-11-24T20:21:53.827Z,30.17
2022-11-24T20:24:22.438Z,36.58
2022-11-24T20:26:57.776Z,32.95
2022-11-24T20:29:24.736Z,34.45
2022-11-24T20:34:27.623Z,32.47
2022-11-24T20:36:54.307Z,35.25
2022-11-24T20:39:25.539Z,31.90
2022-11-24T20:41:52.968Z,35.35
2022-11-24T20:44:21.455Z,38.10
2022-11-24T20:46:48.679Z,35.17
2022-11-24T20:49:18.083Z,30.95
2022-11-24T20:51:47.171Z,34.95
2022-11-24T20:54:15.250Z,34.90
2022-11-24T20:56:43.415Z,35.53
2022-11-24T21:01:46.529Z,33.08
2022-11-24T21:04:17.606Z,31.05
2022-11-24T21:06:44.407Z,34.17
2022-11-24T21:09:11.150Z,34.95
2022-11-24T21:11:41.406Z,32.03
2022-11-24T21:14:09.874Z,33.22
2022-11-24T21:16:38.886Z,38.28
2022-11-24T21:19:10.216Z,35.95
2022-11-24T21:21:38.889Z,36.08
2022-11-24T21:24:13.107Z,35.05
2022-11-24T21:26:42.327Z,37.50
2022-11-24T21:29:14.608Z,38.70
2022-11-24T21:34:19.147Z,32.80
2022-11-24T21:36:49.710Z,41.55
2022-11-24T21:39:17.125Z,41.97
2022-11-24T21:41:44.233Z,44.08
2022-11-24T21:44:12.356Z,45.75
2022-11-24T21:49:06.640Z,46.67
2022-11-24T21:51:33.220Z,35.22
2022-11-24T21:53:59.974Z,46.28
2022-11-24T21:56:26.646Z,46.83
2022-11-24T21:58:55.421Z,45.42
2022-11-24T22:01:25.634Z,45.75
2022-11-24T22:03:52.268Z,42.83
2022-11-24T22:06:19.804Z,38.58
2022-11-24T22:16:53.890Z,31.25
2022-11-24T22:19:20.790Z,28.40
2022-11-24T22:21:47.444Z,25.35
2022-11-24T22:24:14.117Z,23.50
2022-11-24T22:26:40.881Z,24.75
2022-11-24T22:29:17.234Z,33.38
2022-11-24T22:31:46.247Z,24.48
2022-11-24T22:34:13.858Z,24.60
2022-11-24T22:36:41.204Z,25.42
2022-11-24T22:41:53.764Z,23.25
2022-11-24T22:44:20.964Z,22.52
2022-11-24T22:46:47.527Z,23.70
2022-11-24T22:49:14.190Z,22.60
2022-11-24T22:51:40.853Z,28.95
2022-11-24T22:54:07.440Z,27.45
2022-11-24T22:56:34.176Z,26.63
2022-11-24T22:59:02.146Z,29.20
2022-11-24T23:01:29.862Z,27.95
2022-11-24T23:03:56.552Z,26.83
2022-11-24T23:06:31.200Z,25.77
2022-11-24T23:09:00.993Z,24.60
2022-11-24T23:11:37.821Z,26.88
2022-11-24T23:14:07.590Z,23.33
2022-11-24T23:16:34.278Z,27.40
2022-11-24T23:19:00.816Z,28.27
2022-11-24T23:21:29.663Z,25.70
2022-11-24T23:23:56.862Z,21.83
2022-11-24T23:26:25.736Z,19.15
2022-11-24T23:28:52.620Z,22.27
2022-11-24T23:31:24.358Z,21.27
2022-11-24T23:33:51.006Z,19.50
2022-11-24T23:36:19.475Z,21.45
2022-11-24T23:38:46.709Z,20.95
2022-11-24T23:41:16.132Z,22.33
2022-11-24T23:43:43.173Z,19.90
2022-11-24T23:46:21.008Z,23.70
2022-11-24T23:48:48.101Z,15.50
2022-11-24T23:51:15.938Z,19.33
2022-11-24T23:53:43.007Z,19.25
2022-11-24T23:56:12.164Z,19.95
2022-11-24T23:58:38.900Z,20.25
